Time,TemperatureF,DewpointF,PressureIn,WindDirection,WindDirectionDegrees,WindSpeedMPH,WindSpeedGustMPH,Humidity,HourlyPrecipIn,Conditions,Clouds,dailyrainin,SoftwareType,DateUTC
2013-02-04 09:11:00,49.9,33.5,30.11,West,270,0.0,2.0,53,0.00,,CLR,0.00,VWS V14.01,2013-02-04 17:11:00,
2013-02-04 09:12:00,49.9,33.9,30.11,West,276,0.0,0.0,54,0.00,,CLR,0.00,VWS V14.01,2013-02-04 17:12:00,
2013-02-04 09:14:00,49.9,33.5,30.11,West,276,0.0,0.0,53,0.00,,CLR,0.00,VWS V14.01,2013-02-04 17:14:00,
2013-02-04 09:19:00,50.5,33.1,30.11,West,276,0.0,2.0,51,0.00,,CLR,0.00,VWS V14.01,2013-02-04 17:19:00,
2013-02-04 09:24:00,51.2,34.2,30.11,West,276,0.0,0.0,52,0.00,,CLR,0.00,VWS V14.01,2013-02-04 17:24:00,
2013-02-04 09:29:00,52.1,33.5,30.11,West,276,0.0,0.0,49,0.00,,CLR,0.00,VWS V14.01,2013-02-04 17:29:00,
2013-02-04 09:34:00,53.0,33.8,30.11,West,276,0.0,0.0,48,0.00,,CLR,0.00,VWS V14.01,2013-02-04 17:34:00,
2013-02-04 09:40:00,53.8,33.0,30.11,WSW,238,0.0,1.0,45,0.00,,CLR,0.00,VWS V14.01,2013-02-04 17:40:00,
2013-02-04 09:45:00,54.2,33.9,30.11,WSW,238,0.0,2.0,46,0.00,,CLR,0.00,VWS V14.01,2013-02-04 17:45:00,
2013-02-04 09:50:00,54.5,33.6,30.11,WSW,238,0.0,1.0,45,0.00,,CLR,0.00,VWS V14.01,2013-02-04 17:50:00,
2013-02-04 09:55:00,54.9,32.8,30.11,WSW,238,1.0,3.0,43,0.00,,CLR,0.00,VWS V14.01,2013-02-04 17:55:00,
2013-02-04 10:00:00,55.3,31.4,30.11,WSW,238,0.0,2.0,40,0.00,,CLR,0.00,VWS V14.01,2013-02-04 18:00:00,
2013-02-04 10:05:00,55.6,32.3,30.12,WSW,238,0.0,3.0,41,0.00,,CLR,0.00,VWS V14.01,2013-02-04 18:05:00,
2013-02-04 10:10:00,56.2,33.4,30.12,WSW,238,0.0,1.0,42,0.00,,CLR,0.00,VWS V14.01,2013-02-04 18:10:00,
2013-02-04 10:15:00,56.8,31.5,30.12,WSW,239,0.0,1.0,38,0.00,,CLR,0.00,VWS V14.01,2013-02-04 18:15:00,
2013-02-04 10:20:00,57.2,31.8,30.12,WSW,239,0.0,0.0,38,0.00,,CLR,0.00,VWS V14.01,2013-02-04 18:20:00,
2013-02-04 10:25:00,57.4,31.4,30.12,WSW,239,0.0,0.0,37,0.00,,CLR,0.00,VWS V14.01,2013-02-04 18:25:00,
2013-02-04 10:30:00,57.8,31.7,30.12,WSW,239,2.0,2.0,37,0.00,,CLR,0.00,VWS V14.01,2013-02-04 18:30:00,
2013-02-04 10:35:00,58.3,30.8,30.12,WSW,239,0.0,0.0,35,0.00,,CLR,0.00,VWS V14.01,2013-02-04 18:35:00,
2013-02-04 10:40:00,58.6,31.0,30.12,WSW,239,0.0,1.0,35,0.00,,CLR,0.00,VWS V14.01,2013-02-04 18:40:00,
2013-02-04 10:45:00,59.0,31.4,30.11,WSW,239,0.0,0.0,35,0.00,,CLR,0.00,VWS V14.01,2013-02-04 18:45:00,
2013-02-04 10:51:00,59.6,31.2,30.11,WSW,239,0.0,0.0,34,0.00,,CLR,0.00,VWS V14.01,2013-02-04 18:51:00,
2013-02-04 10:56:00,60.2,31.0,30.11,WSW,239,0.0,2.0,33,0.00,,CLR,0.00,VWS V14.01,2013-02-04 18:56:00,
2013-02-04 11:01:00,60.4,31.2,30.11,WSW,240,3.0,3.0,33,0.00,,CLR,0.00,VWS V14.01,2013-02-04 19:01:00,
2013-02-04 11:06:00,60.5,31.3,30.11,WSW,240,0.0,0.0,33,0.00,,CLR,0.00,VWS V14.01,2013-02-04 19:06:00,
2013-02-04 11:11:00,60.9,32.4,30.10,WSW,240,0.0,1.0,34,0.00,,CLR,0.00,VWS V14.01,2013-02-04 19:11:00,
2013-02-04 11:16:00,61.3,31.2,30.10,WSW,240,0.0,0.0,32,0.00,,CLR,0.00,VWS V14.01,2013-02-04 19:16:00,
2013-02-04 11:21:00,61.7,32.3,30.10,WSW,238,0.0,2.0,33,0.00,,CLR,0.00,VWS V14.01,2013-02-04 19:21:00,
2013-02-04 11:26:00,62.2,32.8,30.10,WSW,239,2.0,2.0,33,0.00,,CLR,0.00,VWS V14.01,2013-02-04 19:26:00,
2013-02-04 11:31:00,63.1,33.6,30.10,WSW,244,1.0,5.0,33,0.00,,CLR,0.00,VWS V14.01,2013-02-04 19:31:00,
2013-02-04 11:36:00,63.7,31.7,30.10,WSW,244,0.0,3.0,30,0.00,,CLR,0.00,VWS V14.01,2013-02-04 19:36:00,
2013-02-04 11:41:00,63.8,32.6,30.09,WSW,250,2.0,4.0,31,0.00,,CLR,0.00,VWS V14.01,2013-02-04 19:41:00,
2013-02-04 11:47:00,64.1,33.7,30.09,WSW,254,0.0,7.0,32,0.00,,CLR,0.00,VWS V14.01,2013-02-04 19:47:00,
2013-02-04 11:52:00,64.4,33.9,30.09,WSW,254,0.0,3.0,32,0.00,,CLR,0.00,VWS V14.01,2013-02-04 19:52:00,
2013-02-04 11:57:00,64.7,33.4,30.09,WSW,255,5.0,5.0,31,0.00,,CLR,0.00,VWS V14.01,2013-02-04 19:57:00,
2013-02-04 12:02:00,64.5,33.2,30.08,NE,47,6.0,6.0,31,0.00,,CLR,0.00,VWS V14.01,2013-02-04 20:02:00,
2013-02-04 12:07:00,64.4,33.1,30.08,ENE,67,3.0,5.0,31,0.00,,CLR,0.00,VWS V14.01,2013-02-04 20:07:00,
2013-02-04 12:12:00,64.2,33.0,30.08,ENE,69,0.0,5.0,31,0.00,,CLR,0.00,VWS V14.01,2013-02-04 20:12:00,
2013-02-04 12:17:00,64.3,33.0,30.07,ENE,69,0.0,0.0,31,0.00,,CLR,0.00,VWS V14.01,2013-02-04 20:17:00,
2013-02-04 12:22:00,64.4,32.3,30.07,ENE,69,0.0,1.0,30,0.00,,CLR,0.00,VWS V14.01,2013-02-04 20:22:00,
2013-02-04 12:27:00,64.4,33.1,30.07,ENE,66,0.0,2.0,31,0.00,,CLR,0.00,VWS V14.01,2013-02-04 20:27:00,
2013-02-04 12:32:00,64.6,32.5,30.06,ENE,64,3.0,4.0,30,0.00,,CLR,0.00,VWS V14.01,2013-02-04 20:32:00,
2013-02-04 12:37:00,65.0,32.0,30.06,ENE,67,0.0,4.0,29,0.00,,CLR,0.00,VWS V14.01,2013-02-04 20:37:00,
2013-02-04 12:42:00,65.2,32.2,30.06,ENE,76,5.0,8.0,29,0.00,,CLR,0.00,VWS V14.01,2013-02-04 20:42:00,
2013-02-04 12:47:00,65.3,32.3,30.05,East,81,0.0,4.0,29,0.00,,CLR,0.00,VWS V14.01,2013-02-04 20:47:00,
2013-02-04 12:52:00,65.4,32.3,30.05,East,81,0.0,2.0,29,0.00,,CLR,0.00,VWS V14.01,2013-02-04 20:52:00,
2013-02-04 12:57:00,65.6,32.5,30.05,East,81,1.0,3.0,29,0.00,,CLR,0.00,VWS V14.01,2013-02-04 20:57:00,
2013-02-04 13:03:00,65.9,32.8,30.04,East,80,2.0,3.0,29,0.00,,CLR,0.00,VWS V14.01,2013-02-04 21:03:00,
2013-02-04 13:08:00,66.2,33.9,30.04,East,80,1.0,3.0,30,0.00,,CLR,0.00,VWS V14.01,2013-02-04 21:08:00,
2013-02-04 13:13:00,66.7,32.6,30.04,East,84,1.0,6.0,28,0.00,,CLR,0.00,VWS V14.01,2013-02-04 21:13:00,
2013-02-04 13:18:00,67.0,32.8,30.03,East,84,4.0,4.0,28,0.00,,CLR,0.00,VWS V14.01,2013-02-04 21:18:00,
2013-02-04 13:23:00,66.9,32.8,30.03,East,87,2.0,5.0,28,0.00,,CLR,0.00,VWS V14.01,2013-02-04 21:23:00,
2013-02-04 13:28:00,67.0,32.0,30.03,East,82,6.0,6.0,27,0.00,,CLR,0.00,VWS V14.01,2013-02-04 21:28:00,
2013-02-04 13:33:00,67.2,31.2,30.03,ENE,78,0.0,3.0,26,0.00,,CLR,0.00,VWS V14.01,2013-02-04 21:33:00,
2013-02-04 13:38:00,67.4,31.4,30.02,ENE,78,0.0,5.0,26,0.00,,CLR,0.00,VWS V14.01,2013-02-04 21:38:00,
2013-02-04 13:43:00,67.6,30.6,30.02,ENE,76,3.0,6.0,25,0.00,,CLR,0.00,VWS V14.01,2013-02-04 21:43:00,
2013-02-04 13:48:00,67.7,30.6,30.02,ENE,75,4.0,5.0,25,0.00,,CLR,0.00,VWS V14.01,2013-02-04 21:48:00,
2013-02-04 13:53:00,67.7,29.6,30.01,ENE,69,4.0,7.0,24,0.00,,CLR,0.00,VWS V14.01,2013-02-04 21:53:00,
2013-02-04 13:58:00,67.7,29.6,30.01,ENE,74,0.0,6.0,24,0.00,,CLR,0.00,VWS V14.01,2013-02-04 21:58:00,
2013-02-04 14:03:00,67.8,29.7,30.01,ENE,76,1.0,5.0,24,0.00,,CLR,0.00,VWS V14.01,2013-02-04 22:03:00,
2013-02-04 14:08:00,67.9,29.8,30.00,ENE,76,1.0,1.0,24,0.00,,CLR,0.00,VWS V14.01,2013-02-04 22:08:00,
2013-02-04 14:14:00,68.2,29.0,30.00,ENE,65,0.0,8.0,23,0.00,,CLR,0.00,VWS V14.01,2013-02-04 22:14:00,
2013-02-04 14:19:00,68.2,29.0,30.00,East,79,3.0,10.0,23,0.00,,CLR,0.00,VWS V14.01,2013-02-04 22:19:00,
2013-02-04 14:24:00,68.3,28.0,30.00,ENE,71,0.0,6.0,22,0.00,,CLR,0.00,VWS V14.01,2013-02-04 22:24:00,
2013-02-04 14:29:00,68.5,29.3,30.00,ENE,67,4.0,8.0,23,0.00,,CLR,0.00,VWS V14.01,2013-02-04 22:29:00,
2013-02-04 14:34:00,68.5,28.2,30.00,ENE,72,3.0,6.0,22,0.00,,CLR,0.00,VWS V14.01,2013-02-04 22:34:00,
2013-02-04 14:39:00,68.6,28.3,30.00,ENE,61,6.0,8.0,22,0.00,,CLR,0.00,VWS V14.01,2013-02-04 22:39:00,
2013-02-04 14:44:00,68.7,29.4,30.00,ENE,60,2.0,5.0,23,0.00,,CLR,0.00,VWS V14.01,2013-02-04 22:44:00,
2013-02-04 14:49:00,68.8,28.4,30.00,ENE,60,2.0,2.0,22,0.00,,CLR,0.00,VWS V14.01,2013-02-04 22:49:00,
2013-02-04 14:54:00,68.8,28.4,30.00,ENE,78,4.0,12.0,22,0.00,,CLR,0.00,VWS V14.01,2013-02-04 22:54:00,
2013-02-04 14:59:00,68.9,27.4,29.99,ENE,70,4.0,6.0,21,0.00,,CLR,0.00,VWS V14.01,2013-02-04 22:59:00,
2013-02-04 15:04:00,68.8,27.3,29.99,ENE,67,5.0,5.0,21,0.00,,CLR,0.00,VWS V14.01,2013-02-04 23:04:00,
2013-02-04 15:09:00,68.8,28.4,30.00,ENE,60,0.0,6.0,22,0.00,,CLR,0.00,VWS V14.01,2013-02-04 23:09:00,
2013-02-04 15:14:00,68.9,28.5,30.00,ENE,60,1.0,3.0,22,0.00,,CLR,0.00,VWS V14.01,2013-02-04 23:14:00,
2013-02-04 15:19:00,69.2,27.6,30.00,ENE,60,1.0,1.0,21,0.00,,CLR,0.00,VWS V14.01,2013-02-04 23:19:00,
2013-02-04 15:24:00,69.4,27.8,30.00,ENE,63,5.0,6.0,21,0.00,,CLR,0.00,VWS V14.01,2013-02-04 23:24:00,
2013-02-04 15:30:00,69.4,26.6,30.00,ENE,73,3.0,6.0,20,0.00,,CLR,0.00,VWS V14.01,2013-02-04 23:30:00,
2013-02-04 15:35:00,69.1,26.4,30.00,ENE,73,0.0,4.0,20,0.00,,CLR,0.00,VWS V14.01,2013-02-04 23:35:00,
2013-02-04 15:40:00,69.0,26.3,30.00,ENE,73,0.0,0.0,20,0.00,,CLR,0.00,VWS V14.01,2013-02-04 23:40:00,
2013-02-04 15:45:00,69.1,26.4,29.99,ENE,71,3.0,3.0,20,0.00,,CLR,0.00,VWS V14.01,2013-02-04 23:45:00,
2013-02-04 15:50:00,69.0,25.1,29.99,ENE,71,3.0,3.0,19,0.00,,CLR,0.00,VWS V14.01,2013-02-04 23:50:00,
2013-02-04 15:55:00,68.9,26.2,29.99,ENE,71,0.0,0.0,20,0.00,,CLR,0.00,VWS V14.01,2013-02-04 23:55:00,
2013-02-04 16:00:00,68.7,24.8,29.99,ENE,71,4.0,4.0,19,0.00,,CLR,0.00,VWS V14.01,2013-02-05 00:00:00,
2013-02-04 16:05:00,68.6,26.0,29.99,ENE,62,0.0,0.0,20,0.00,,CLR,0.00,VWS V14.01,2013-02-05 00:05:00,
2013-02-04 16:10:00,68.5,25.9,29.99,ENE,63,0.0,0.0,20,0.00,,CLR,0.00,VWS V14.01,2013-02-05 00:10:00,
2013-02-04 16:15:00,68.5,25.9,29.99,ENE,65,2.0,3.0,20,0.00,,CLR,0.00,VWS V14.01,2013-02-05 00:15:00,
2013-02-04 16:20:00,68.2,24.4,29.99,ENE,65,0.0,1.0,19,0.00,,CLR,0.00,VWS V14.01,2013-02-05 00:20:00,
2013-02-04 16:25:00,68.1,25.5,29.99,ENE,64,3.0,4.0,20,0.00,,CLR,0.00,VWS V14.01,2013-02-05 00:25:00,
2013-02-04 16:30:00,68.1,25.5,29.99,ENE,64,0.0,0.0,20,0.00,,CLR,0.00,VWS V14.01,2013-02-05 00:30:00,
2013-02-04 16:35:00,68.1,25.5,29.99,ENE,64,0.0,0.0,20,0.00,,CLR,0.00,VWS V14.01,2013-02-05 00:35:00,
2013-02-04 16:40:00,68.0,25.5,29.98,ENE,64,0.0,1.0,20,0.00,,CLR,0.00,VWS V14.01,2013-02-05 00:40:00,
2013-02-04 16:45:00,67.9,25.4,29.99,ENE,63,3.0,5.0,20,0.00,,CLR,0.00,VWS V14.01,2013-02-05 00:45:00,
2013-02-04 16:51:00,67.8,25.3,29.98,ENE,63,1.0,3.0,20,0.00,,CLR,0.00,VWS V14.01,2013-02-05 00:51:00,
2013-02-04 16:56:00,67.6,25.1,29.98,ENE,63,2.0,3.0,20,0.00,,CLR,0.00,VWS V14.01,2013-02-05 00:56:00,
2013-02-04 17:01:00,67.3,24.9,29.99,ENE,63,0.0,0.0,20,0.00,,CLR,0.00,VWS V14.01,2013-02-05 01:01:00,
2013-02-04 17:06:00,67.1,24.7,29.98,ENE,63,0.0,0.0,20,0.00,,CLR,0.00,VWS V14.01,2013-02-05 01:06:00,
2013-02-04 17:11:00,66.7,25.6,29.98,ENE,63,0.0,1.0,21,0.00,,CLR,0.00,VWS V14.01,2013-02-05 01:11:00,
2013-02-04 17:16:00,66.2,25.1,29.98,ENE,63,0.0,0.0,21,0.00,,CLR,0.00,VWS V14.01,2013-02-05 01:16:00,
2013-02-04 17:21:00,65.6,24.6,29.98,ENE,63,0.0,0.0,21,0.00,,CLR,0.00,VWS V14.01,2013-02-05 01:21:00,
2013-02-04 17:26:00,65.1,25.3,29.98,ENE,63,0.0,0.0,22,0.00,,CLR,0.00,VWS V14.01,2013-02-05 01:26:00,
2013-02-04 17:31:00,64.4,24.8,29.98,ENE,63,0.0,0.0,22,0.00,,CLR,0.00,VWS V14.01,2013-02-05 01:31:00,
2013-02-04 17:36:00,63.6,27.2,29.98,ENE,63,0.0,0.0,25,0.00,,CLR,0.00,VWS V14.01,2013-02-05 01:36:00,
2013-02-04 17:42:00,62.8,28.4,29.98,ENE,63,0.0,0.0,27,0.00,,CLR,0.00,VWS V14.01,2013-02-05 01:42:00,
2013-02-04 17:47:00,62.0,29.4,29.99,ENE,63,0.0,0.0,29,0.00,,CLR,0.00,VWS V14.01,2013-02-05 01:47:00,
2013-02-04 17:52:00,61.2,28.7,29.99,ENE,63,0.0,0.0,29,0.00,,CLR,0.00,VWS V14.01,2013-02-05 01:52:00,
2013-02-04 17:57:00,60.5,28.1,29.99,ENE,63,0.0,0.0,29,0.00,,CLR,0.00,VWS V14.01,2013-02-05 01:57:00,
2013-02-04 18:02:00,59.7,28.2,29.99,ENE,63,0.0,0.0,30,0.00,,CLR,0.00,VWS V14.01,2013-02-05 02:02:00,
2013-02-04 18:07:00,59.0,29.2,29.99,ENE,63,0.0,0.0,32,0.00,,CLR,0.00,VWS V14.01,2013-02-05 02:07:00,
2013-02-04 18:12:00,58.4,28.7,29.99,ENE,63,0.0,0.0,32,0.00,,CLR,0.00,VWS V14.01,2013-02-05 02:12:00,
2013-02-04 18:17:00,57.7,28.8,29.99,ENE,63,0.0,0.0,33,0.00,,CLR,0.00,VWS V14.01,2013-02-05 02:17:00,
2013-02-04 18:22:00,57.1,29.0,29.99,ENE,63,0.0,0.0,34,0.00,,CLR,0.00,VWS V14.01,2013-02-05 02:22:00,
2013-02-04 18:27:00,56.5,29.2,29.99,ENE,63,0.0,1.0,35,0.00,,CLR,0.00,VWS V14.01,2013-02-05 02:27:00,
2013-02-04 18:32:00,55.9,29.4,29.99,ENE,63,0.0,0.0,36,0.00,,CLR,0.00,VWS V14.01,2013-02-05 02:32:00,
2013-02-04 18:37:00,55.5,29.7,29.99,ENE,63,0.0,1.0,37,0.00,,CLR,0.00,VWS V14.01,2013-02-05 02:37:00,
2013-02-04 18:42:00,55.1,28.6,29.99,ENE,63,0.0,0.0,36,0.00,,CLR,0.00,VWS V14.01,2013-02-05 02:42:00,
2013-02-04 18:48:00,54.8,29.0,29.99,ENE,63,0.0,1.0,37,0.00,,CLR,0.00,VWS V14.01,2013-02-05 02:48:00,
2013-02-04 18:53:00,54.3,28.6,30.00,ENE,63,0.0,0.0,37,0.00,,CLR,0.00,VWS V14.01,2013-02-05 02:53:00,
2013-02-04 18:58:00,53.9,28.9,30.00,ENE,63,0.0,1.0,38,0.00,,CLR,0.00,VWS V14.01,2013-02-05 02:58:00,
2013-02-04 19:03:00,53.5,28.5,30.01,ENE,63,0.0,0.0,38,0.00,,CLR,0.00,VWS V14.01,2013-02-05 03:03:00,
2013-02-04 19:08:00,53.1,28.2,30.01,ENE,63,0.0,0.0,38,0.00,,CLR,0.00,VWS V14.01,2013-02-05 03:08:00,
2013-02-04 19:13:00,52.7,28.5,30.01,ENE,63,0.0,0.0,39,0.00,,CLR,0.00,VWS V14.01,2013-02-05 03:13:00,
2013-02-04 19:18:00,52.4,28.2,30.01,ENE,63,0.0,0.0,39,0.00,,CLR,0.00,VWS V14.01,2013-02-05 03:18:00,
2013-02-04 19:23:00,52.2,28.6,30.01,ENE,63,0.0,1.0,40,0.00,,CLR,0.00,VWS V14.01,2013-02-05 03:23:00,
2013-02-04 19:28:00,52.0,28.5,30.01,ENE,63,0.0,0.0,40,0.00,,CLR,0.00,VWS V14.01,2013-02-05 03:28:00,
2013-02-04 19:33:00,51.8,28.9,30.01,ENE,63,2.0,2.0,41,0.00,,CLR,0.00,VWS V14.01,2013-02-05 03:33:00,
2013-02-04 19:38:00,51.6,29.3,30.01,ENE,63,0.0,1.0,42,0.00,,CLR,0.00,VWS V14.01,2013-02-05 03:38:00,
2013-02-04 19:43:00,51.4,29.1,30.01,ENE,63,0.0,0.0,42,0.00,,CLR,0.00,VWS V14.01,2013-02-05 03:43:00,
2013-02-04 19:48:00,51.3,29.0,30.02,ENE,63,0.0,0.0,42,0.00,,CLR,0.00,VWS V14.01,2013-02-05 03:48:00,
2013-02-04 19:53:00,51.2,28.9,30.02,ENE,63,0.0,1.0,42,0.00,,CLR,0.00,VWS V14.01,2013-02-05 03:53:00,
2013-02-04 19:59:00,51.1,28.8,30.02,ENE,63,0.0,0.0,42,0.00,,CLR,0.00,VWS V14.01,2013-02-05 03:59:00,
2013-02-04 20:04:00,51.1,28.2,30.02,ENE,63,0.0,0.0,41,0.00,,CLR,0.00,VWS V14.01,2013-02-05 04:04:00,
2013-02-04 20:09:00,51.0,28.1,30.02,ENE,63,0.0,0.0,41,0.00,,CLR,0.00,VWS V14.01,2013-02-05 04:09:00,
2013-02-04 20:14:00,50.9,28.6,30.02,ENE,63,0.0,2.0,42,0.00,,CLR,0.00,VWS V14.01,2013-02-05 04:14:00,
2013-02-04 20:19:00,50.8,28.5,30.02,ENE,63,0.0,0.0,42,0.00,,CLR,0.00,VWS V14.01,2013-02-05 04:19:00,
2013-02-04 20:24:00,50.6,28.4,30.03,ENE,63,0.0,1.0,42,0.00,,CLR,0.00,VWS V14.01,2013-02-05 04:24:00,
2013-02-04 20:29:00,50.5,28.3,30.03,ENE,63,0.0,1.0,42,0.00,,CLR,0.00,VWS V14.01,2013-02-05 04:29:00,
2013-02-04 20:34:00,50.4,28.8,30.03,ENE,63,0.0,0.0,43,0.00,,CLR,0.00,VWS V14.01,2013-02-05 04:34:00,
2013-02-04 20:39:00,50.3,28.1,30.03,ENE,63,0.0,0.0,42,0.00,,CLR,0.00,VWS V14.01,2013-02-05 04:39:00,
2013-02-04 20:44:00,50.2,28.6,30.03,ENE,63,0.0,0.0,43,0.00,,CLR,0.00,VWS V14.01,2013-02-05 04:44:00,
2013-02-04 20:49:00,50.1,28.5,30.03,ENE,63,0.0,0.0,43,0.00,,CLR,0.00,VWS V14.01,2013-02-05 04:49:00,
2013-02-04 20:54:00,49.9,28.9,30.03,ENE,63,0.0,1.0,44,0.00,,CLR,0.00,VWS V14.01,2013-02-05 04:54:00,
2013-02-04 20:59:00,49.7,28.7,30.03,ENE,63,0.0,0.0,44,0.00,,CLR,0.00,VWS V14.01,2013-02-05 04:59:00,
2013-02-04 21:00:00,49.7,28.7,30.03,ENE,63,0.0,0.0,44,0.00,,CLR,0.00,VWS V14.01,2013-02-05 05:00:00,
2013-02-04 21:04:00,49.5,29.1,30.03,ENE,63,0.0,0.0,45,0.00,,CLR,0.00,VWS V14.01,2013-02-05 05:04:00,
2013-02-04 21:05:00,49.5,28.5,30.03,ENE,63,0.0,0.0,44,0.00,,CLR,0.00,VWS V14.01,2013-02-05 05:05:00,
2013-02-04 21:10:00,49.4,29.0,30.03,ENE,63,0.0,0.0,45,0.00,,CLR,0.00,VWS V14.01,2013-02-05 05:10:00,
2013-02-04 21:15:00,49.2,28.8,30.03,ENE,63,1.0,2.0,45,0.00,,CLR,0.00,VWS V14.01,2013-02-05 05:15:00,
2013-02-04 21:20:00,49.2,28.2,30.04,ENE,63,0.0,1.0,44,0.00,,CLR,0.00,VWS V14.01,2013-02-05 05:20:00,
2013-02-04 21:25:00,49.2,28.8,30.04,ENE,63,0.0,0.0,45,0.00,,CLR,0.00,VWS V14.01,2013-02-05 05:25:00,
2013-02-04 21:30:00,49.1,28.7,30.04,ENE,63,0.0,1.0,45,0.00,,CLR,0.00,VWS V14.01,2013-02-05 05:30:00,
2013-02-04 21:35:00,49.1,28.1,30.03,ENE,63,0.0,0.0,44,0.00,,CLR,0.00,VWS V14.01,2013-02-05 05:35:00,
2013-02-04 21:40:00,49.2,28.2,30.03,ENE,63,0.0,1.0,44,0.00,,CLR,0.00,VWS V14.01,2013-02-05 05:40:00,
2013-02-04 21:45:00,49.2,28.8,30.03,ENE,63,0.0,0.0,45,0.00,,CLR,0.00,VWS V14.01,2013-02-05 05:45:00,
2013-02-04 21:50:00,49.0,28.0,30.03,ENE,63,0.0,0.0,44,0.00,,CLR,0.00,VWS V14.01,2013-02-05 05:50:00,
2013-02-04 21:55:00,48.8,28.4,30.03,ENE,63,0.0,0.0,45,0.00,,CLR,0.00,VWS V14.01,2013-02-05 05:55:00,
2013-02-04 22:00:00,48.5,28.1,30.03,ENE,63,0.0,0.0,45,0.00,,CLR,0.00,VWS V14.01,2013-02-05 06:00:00,
2013-02-04 22:06:00,48.2,27.9,30.03,ENE,63,0.0,0.0,45,0.00,,CLR,0.00,VWS V14.01,2013-02-05 06:06:00,
2013-02-04 22:11:00,47.9,28.1,30.03,ENE,63,0.0,0.0,46,0.00,,CLR,0.00,VWS V14.01,2013-02-05 06:11:00,
2013-02-04 22:16:00,47.8,28.0,30.03,ENE,63,0.0,0.0,46,0.00,,CLR,0.00,VWS V14.01,2013-02-05 06:16:00,
2013-02-04 22:21:00,47.8,28.6,30.03,ENE,63,0.0,0.0,47,0.00,,CLR,0.00,VWS V14.01,2013-02-05 06:21:00,
2013-02-04 22:26:00,47.5,28.8,30.03,ENE,63,0.0,0.0,48,0.00,,CLR,0.00,VWS V14.01,2013-02-05 06:26:00,
2013-02-04 22:31:00,47.3,28.1,30.03,ENE,63,0.0,0.0,47,0.00,,CLR,0.00,VWS V14.01,2013-02-05 06:31:00,
2013-02-04 22:36:00,47.0,28.3,30.03,ENE,63,0.0,0.0,48,0.00,,CLR,0.00,VWS V14.01,2013-02-05 06:36:00,
2013-02-04 22:41:00,46.8,28.2,30.03,ENE,63,0.0,0.0,48,0.00,,CLR,0.00,VWS V14.01,2013-02-05 06:41:00,
2013-02-04 22:46:00,46.5,27.9,30.03,ENE,63,0.0,0.0,48,0.00,,CLR,0.00,VWS V14.01,2013-02-05 06:46:00,
2013-02-04 22:51:00,46.4,28.3,30.03,ENE,63,0.0,0.0,49,0.00,,CLR,0.00,VWS V14.01,2013-02-05 06:51:00,
2013-02-04 22:56:00,46.4,28.3,30.02,ENE,63,0.0,0.0,49,0.00,,CLR,0.00,VWS V14.01,2013-02-05 06:56:00,
2013-02-04 23:01:00,46.3,27.7,30.02,ENE,63,0.0,0.0,48,0.00,,CLR,0.00,VWS V14.01,2013-02-05 07:01:00,
2013-02-04 23:06:00,46.3,27.7,30.02,ENE,63,0.0,0.0,48,0.00,,CLR,0.00,VWS V14.01,2013-02-05 07:06:00,
2013-02-04 23:12:00,46.2,27.6,30.02,ENE,63,0.0,0.0,48,0.00,,CLR,0.00,VWS V14.01,2013-02-05 07:12:00,
2013-02-04 23:17:00,46.0,27.9,30.02,ENE,63,0.0,0.0,49,0.00,,CLR,0.00,VWS V14.01,2013-02-05 07:17:00,
2013-02-04 23:22:00,45.8,27.7,30.02,ENE,63,0.0,0.0,49,0.00,,CLR,0.00,VWS V14.01,2013-02-05 07:22:00,
2013-02-04 23:27:00,45.8,27.7,30.02,ENE,63,0.0,0.0,49,0.00,,CLR,0.00,VWS V14.01,2013-02-05 07:27:00,
2013-02-04 23:32:00,46.1,27.0,30.02,ENE,63,0.0,2.0,47,0.00,,CLR,0.00,VWS V14.01,2013-02-05 07:32:00,
2013-02-04 23:37:00,46.7,27.0,30.02,ENE,63,0.0,0.0,46,0.00,,CLR,0.00,VWS V14.01,2013-02-05 07:37:00,
2013-02-04 23:42:00,47.1,26.9,30.02,ENE,63,0.0,1.0,45,0.00,,CLR,0.00,VWS V14.01,2013-02-05 07:42:00,
2013-02-04 23:47:00,47.4,27.1,30.02,ENE,63,0.0,0.0,45,0.00,,CLR,0.00,VWS V14.01,2013-02-05 07:47:00,
2013-02-04 23:52:00,47.5,27.8,30.02,ENE,63,0.0,0.0,46,0.00,,CLR,0.00,VWS V14.01,2013-02-05 07:52:00,
2013-02-04 23:57:00,47.3,28.1,30.02,ENE,61,3.0,3.0,47,0.00,,CLR,0.00,VWS V14.01,2013-02-05 07:57:00,